createdAt,value
2019-05-28T00:01:16.438Z,9.70
2019-05-28T00:04:03.533Z,9.75
2019-05-28T00:06:50.519Z,11.43
2019-05-28T00:09:37.351Z,11.12
2019-05-28T00:12:24.418Z,12.30
2019-05-28T00:15:11.079Z,11.63
2019-05-28T00:17:58.320Z,12.20
2019-05-28T00:20:45.186Z,11.27
2019-05-28T00:23:31.975Z,11.20
2019-05-28T00:26:19.005Z,10.25
2019-05-28T00:29:05.727Z,11.32
2019-05-28T00:31:52.548Z,12.45
2019-05-28T00:34:39.735Z,11.52
2019-05-28T00:37:26.848Z,11.20
2019-05-28T00:40:13.866Z,10.73
2019-05-28T00:43:01.095Z,11.48
2019-05-28T00:45:48.111Z,11.43
2019-05-28T00:48:35.328Z,11.63
2019-05-28T00:51:22.047Z,13.40
2019-05-28T00:54:09.471Z,11.73
2019-05-28T00:57:33.877Z,10.80
2019-05-28T01:00:36.572Z,10.80
2019-05-28T01:03:11.037Z,10.48
2019-05-28T01:05:58.296Z,11.93
2019-05-28T01:08:45.100Z,11.77
2019-05-28T01:11:32.374Z,11.23
2019-05-28T01:14:19.200Z,11.80
2019-05-28T01:17:06.605Z,11.52
2019-05-28T01:19:53.670Z,11.23
2019-05-28T01:22:40.921Z,13.43
2019-05-28T01:25:27.874Z,11.95
2019-05-28T01:28:14.972Z,10.32
2019-05-28T01:31:01.824Z,10.70
2019-05-28T01:33:49.000Z,10.30
2019-05-28T01:36:36.206Z,10.63
2019-05-28T01:39:23.276Z,10.55
2019-05-28T01:42:10.368Z,10.05
2019-05-28T01:44:57.484Z,11.70
2019-05-28T01:47:44.263Z,10.23
2019-05-28T01:50:31.278Z,9.02
2019-05-28T01:53:18.017Z,9.60
2019-05-28T01:56:05.169Z,8.32
2019-05-28T01:58:52.423Z,9.80
2019-05-28T02:01:39.336Z,9.23
2019-05-28T02:04:26.566Z,8.27
2019-05-28T02:07:13.396Z,8.20
2019-05-28T02:10:00.301Z,7.47
2019-05-28T02:12:47.598Z,8.00
2019-05-28T02:15:34.253Z,6.85
2019-05-28T02:18:21.322Z,7.10
2019-05-28T02:21:08.035Z,6.90
2019-05-28T02:24:07.509Z,6.72
2019-05-28T02:26:54.941Z,7.37
2019-05-28T02:29:42.161Z,7.00
2019-05-28T02:32:29.350Z,7.25
2019-05-28T02:35:16.263Z,7.87
2019-05-28T02:38:04.033Z,7.12
2019-05-28T02:40:51.266Z,8.07
2019-05-28T02:43:38.258Z,6.60
2019-05-28T02:46:25.586Z,7.22
2019-05-28T02:49:12.818Z,6.78
2019-05-28T02:51:59.932Z,7.20
2019-05-28T02:54:46.702Z,7.30
2019-05-28T02:57:33.662Z,7.30
2019-05-28T03:00:23.825Z,5.97
2019-05-28T03:03:11.160Z,7.32
2019-05-28T03:05:58.437Z,6.93
2019-05-28T03:08:45.688Z,6.60
2019-05-28T03:11:32.814Z,6.53
2019-05-28T03:14:19.707Z,6.82
2019-05-28T03:17:07.215Z,6.80
2019-05-28T03:19:54.526Z,6.35
2019-05-28T03:22:41.275Z,6.57
2019-05-28T03:25:28.205Z,6.18
2019-05-28T03:28:15.062Z,6.53
2019-05-28T03:31:02.311Z,6.80
2019-05-28T03:33:49.612Z,7.28
2019-05-28T03:36:36.836Z,7.97
2019-05-28T03:39:24.187Z,7.15
2019-05-28T03:42:11.551Z,6.90
2019-05-28T03:44:58.607Z,7.72
2019-05-28T03:47:45.594Z,6.55
2019-05-28T03:54:28.422Z,7.03
2019-05-28T03:57:15.228Z,7.32
2019-05-28T04:00:02.446Z,6.15
2019-05-28T04:02:49.769Z,6.03
2019-05-28T04:05:37.458Z,6.18
2019-05-28T04:08:24.299Z,6.55
2019-05-28T04:11:11.737Z,6.22
2019-05-28T04:13:58.752Z,6.30
2019-05-28T04:16:45.655Z,6.20
2019-05-28T04:19:32.469Z,5.68
2019-05-28T04:22:22.247Z,5.78
2019-05-28T04:25:08.959Z,5.82
2019-05-28T04:27:55.986Z,5.57
2019-05-28T04:30:43.610Z,5.75
2019-05-28T04:33:30.809Z,5.30
2019-05-28T04:36:17.843Z,6.05
2019-05-28T04:39:04.783Z,5.87
2019-05-28T04:41:52.333Z,5.75
2019-05-28T04:44:39.376Z,5.07
2019-05-28T04:47:26.302Z,5.28
2019-05-28T04:50:13.095Z,5.65
2019-05-28T04:52:59.859Z,5.65
2019-05-28T04:55:47.224Z,5.10
2019-05-28T04:58:34.373Z,4.35
2019-05-28T05:01:21.264Z,4.87
2019-05-28T05:04:08.368Z,4.60
2019-05-28T05:06:55.293Z,4.03
2019-05-28T05:09:42.725Z,4.68
2019-05-28T05:12:29.600Z,4.45
2019-05-28T05:15:16.736Z,4.47
2019-05-28T05:18:03.621Z,4.37
2019-05-28T05:20:50.758Z,4.50
2019-05-28T05:23:37.877Z,3.92
2019-05-28T05:33:19.368Z,4.50
2019-05-28T05:45:10.072Z,3.80
2019-05-28T06:03:40.442Z,4.50
2019-05-28T06:06:22.905Z,4.57
2019-05-28T06:09:10.092Z,4.12
2019-05-28T06:12:00.045Z,4.32
2019-05-28T06:14:47.194Z,3.85
2019-05-28T06:17:34.071Z,3.75
2019-05-28T06:20:21.002Z,3.40
2019-05-28T06:23:08.315Z,3.70
2019-05-28T06:25:55.848Z,4.03
2019-05-28T06:28:42.925Z,3.50
2019-05-28T06:50:22.104Z,3.70
2019-05-28T06:53:08.927Z,3.22
2019-05-28T06:55:55.796Z,3.40
2019-05-28T06:58:42.708Z,3.45
2019-05-28T07:01:29.545Z,3.92
2019-05-28T07:04:32.288Z,3.20
2019-05-28T07:07:10.616Z,2.85
2019-05-28T07:09:57.901Z,3.70
2019-05-28T07:12:44.825Z,3.33
2019-05-28T07:15:32.349Z,3.62
2019-05-28T07:18:19.615Z,3.53
2019-05-28T07:21:07.072Z,3.80
2019-05-28T07:23:53.937Z,2.95
2019-05-28T07:26:41.588Z,3.22
2019-05-28T07:29:28.441Z,3.53
2019-05-28T07:32:15.755Z,2.87
2019-05-28T07:35:03.007Z,2.90
2019-05-28T07:37:50.145Z,3.60
2019-05-28T07:40:37.028Z,3.60
2019-05-28T07:43:24.216Z,2.92
2019-05-28T07:46:11.547Z,3.28
2019-05-28T07:48:58.792Z,3.40
2019-05-28T07:51:46.074Z,3.35
2019-05-28T07:54:32.860Z,3.10
2019-05-28T07:57:20.114Z,3.12
2019-05-28T08:00:07.196Z,3.45
2019-05-28T08:02:54.222Z,4.22
2019-05-28T08:05:41.336Z,3.40
2019-05-28T08:08:28.653Z,3.20
2019-05-28T08:11:15.777Z,3.78
2019-05-28T08:14:03.042Z,3.33
2019-05-28T08:16:52.652Z,3.20
2019-05-28T08:19:37.414Z,2.78
2019-05-28T08:22:40.504Z,3.22
2019-05-28T08:25:27.545Z,3.50
2019-05-28T08:28:16.443Z,3.40
2019-05-28T08:30:46.100Z,3.25
2019-05-28T08:33:47.307Z,3.05
2019-05-28T08:36:36.983Z,3.00
2019-05-28T08:39:23.870Z,2.95
2019-05-28T08:42:11.142Z,2.87
2019-05-28T08:44:58.431Z,3.20
2019-05-28T08:47:45.179Z,2.67
2019-05-28T08:50:34.935Z,2.85
2019-05-28T08:53:24.223Z,2.62
2019-05-28T08:56:12.523Z,3.08
2019-05-28T08:58:59.569Z,2.87
2019-05-28T09:01:46.483Z,2.95
2019-05-28T09:04:33.980Z,2.67
2019-05-28T09:07:20.804Z,2.83
2019-05-28T09:10:08.115Z,2.50
2019-05-28T09:12:55.599Z,2.15
2019-05-28T09:15:42.758Z,1.85
2019-05-28T09:18:29.879Z,2.20
2019-05-28T09:21:16.780Z,2.05
2019-05-28T09:24:03.892Z,2.00
2019-05-28T09:26:50.913Z,2.10
2019-05-28T09:29:38.225Z,2.22
2019-05-28T09:32:25.300Z,2.10
2019-05-28T09:35:12.480Z,2.08
2019-05-28T09:37:59.599Z,1.73
2019-05-28T09:40:50.476Z,1.80
2019-05-28T09:43:33.526Z,1.90
2019-05-28T09:46:20.774Z,1.50
2019-05-28T09:49:07.656Z,1.90
2019-05-28T09:51:54.796Z,2.17
2019-05-28T09:54:42.125Z,1.85
2019-05-28T09:57:29.308Z,1.73
2019-05-28T10:00:19.480Z,2.12
2019-05-28T10:03:07.212Z,1.92
2019-05-28T10:06:16.098Z,1.73
2019-05-28T10:08:51.648Z,1.75
2019-05-28T10:11:38.623Z,1.87
2019-05-28T10:14:26.535Z,1.40
2019-05-28T10:17:13.965Z,1.87
2019-05-28T10:20:06.685Z,1.98
2019-05-28T10:25:59.544Z,1.98
2019-05-28T10:28:50.291Z,1.67
2019-05-28T10:31:33.409Z,1.85
2019-05-28T10:34:32.657Z,1.83
2019-05-28T10:37:19.955Z,1.90
2019-05-28T10:40:07.277Z,1.40
2019-05-28T10:42:54.525Z,1.98
2019-05-28T10:45:41.285Z,2.10
2019-05-28T10:48:35.914Z,2.40
2019-05-28T10:51:23.158Z,2.43
2019-05-28T10:54:10.663Z,2.95
2019-05-28T10:56:58.170Z,2.30
2019-05-28T10:59:44.925Z,2.30
2019-05-28T11:02:31.549Z,2.83
2019-05-28T11:05:20.155Z,2.10
2019-05-28T11:08:07.339Z,2.62
2019-05-28T11:10:54.179Z,2.72
2019-05-28T11:13:52.653Z,2.10
2019-05-28T11:16:28.560Z,2.25
2019-05-28T11:19:16.869Z,2.00
2019-05-28T11:22:04.372Z,2.25
2019-05-28T11:24:51.916Z,2.55
2019-05-28T11:27:38.884Z,2.60
2019-05-28T11:30:26.049Z,3.03
2019-05-28T11:33:17.435Z,2.83
2019-05-28T11:36:03.252Z,2.45
2019-05-28T11:38:49.972Z,2.90
2019-05-28T11:41:41.850Z,3.03
2019-05-28T11:44:24.573Z,3.53
2019-05-28T11:47:11.417Z,3.05
2019-05-28T11:49:59.315Z,3.28
2019-05-28T11:52:46.086Z,3.28
2019-05-28T11:55:34.058Z,3.03
2019-05-28T11:58:20.895Z,3.05
2019-05-28T12:01:07.920Z,3.25
2019-05-28T12:03:55.477Z,3.30
2019-05-28T12:06:48.595Z,3.80
2019-05-28T12:09:35.428Z,3.67
2019-05-28T12:12:22.946Z,3.55
2019-05-28T12:15:09.989Z,3.10
2019-05-28T12:17:57.512Z,2.75
2019-05-28T12:20:44.960Z,3.87
2019-05-28T12:23:31.723Z,2.70
2019-05-28T12:26:19.294Z,3.17
2019-05-28T12:29:12.483Z,3.00
2019-05-28T12:31:59.850Z,3.40
2019-05-28T12:34:47.633Z,3.50
2019-05-28T12:37:47.304Z,3.37
2019-05-28T12:40:21.507Z,3.80
2019-05-28T12:43:09.956Z,3.30
2019-05-28T12:45:56.860Z,3.20
2019-05-28T12:48:53.958Z,3.78
2019-05-28T12:51:40.767Z,3.10
2019-05-28T12:54:27.675Z,3.37
2019-05-28T12:57:14.972Z,3.22
2019-05-28T13:00:02.054Z,2.42
2019-05-28T13:02:49.044Z,2.70
2019-05-28T13:05:48.593Z,2.28
2019-05-28T13:08:35.825Z,1.70
2019-05-28T13:11:44.653Z,1.92
2019-05-28T13:14:31.475Z,2.42
2019-05-28T13:17:18.613Z,2.28
2019-05-28T13:20:08.428Z,1.83
2019-05-28T13:22:55.688Z,1.87
2019-05-28T13:25:43.214Z,2.53
2019-05-28T13:28:30.587Z,2.65
2019-05-28T13:31:17.703Z,1.73
2019-05-28T13:34:05.504Z,2.40
2019-05-28T13:36:52.567Z,2.40
2019-05-28T13:39:39.676Z,2.35
2019-05-28T13:42:26.912Z,2.12
2019-05-28T13:45:14.169Z,2.25
2019-05-28T13:48:02.557Z,2.40
2019-05-28T13:50:52.487Z,2.35
2019-05-28T13:53:39.483Z,1.62
2019-05-28T13:56:26.624Z,1.92
2019-05-28T13:59:27.643Z,1.55
2019-05-28T14:02:15.441Z,1.83
2019-05-28T14:05:02.677Z,1.70
2019-05-28T14:07:49.385Z,2.25
2019-05-28T14:10:36.584Z,1.40
2019-05-28T14:13:24.008Z,1.50
2019-05-28T14:16:10.828Z,1.70
2019-05-28T14:18:57.857Z,2.10
2019-05-28T14:21:45.011Z,1.40
2019-05-28T14:24:32.117Z,1.08
2019-05-28T14:27:19.519Z,1.40
2019-05-28T14:30:15.712Z,1.58
2019-05-28T14:33:04.202Z,1.50
2019-05-28T14:35:52.516Z,1.70
2019-05-28T14:38:39.309Z,1.50
2019-05-28T14:41:26.482Z,1.23
2019-05-28T14:44:13.772Z,1.70
2019-05-28T14:47:00.415Z,1.50
2019-05-28T14:49:48.302Z,1.55
2019-05-28T14:52:35.144Z,1.55
2019-05-28T14:55:22.351Z,1.45
2019-05-28T15:01:28.045Z,1.60
2019-05-28T15:04:15.295Z,1.83
2019-05-28T15:07:02.537Z,2.03
2019-05-28T15:09:49.695Z,2.25
2019-05-28T15:12:36.661Z,1.37
2019-05-28T15:15:35.425Z,2.30
2019-05-28T15:18:10.783Z,1.58
2019-05-28T15:20:58.005Z,1.23
2019-05-28T15:23:44.939Z,1.40
2019-05-28T15:26:32.645Z,1.33
2019-05-28T15:29:19.666Z,1.35
2019-05-28T15:32:06.352Z,1.55
2019-05-28T15:34:53.375Z,1.55
2019-05-28T15:37:42.202Z,1.62
2019-05-28T15:40:29.397Z,1.37
2019-05-28T15:43:16.282Z,1.52
2019-05-28T15:46:03.962Z,1.08
2019-05-28T15:48:50.870Z,1.10
2019-05-28T15:51:37.703Z,1.60
2019-05-28T15:54:24.630Z,1.92
2019-05-28T15:57:23.735Z,1.37
2019-05-28T16:00:13.576Z,1.30
2019-05-28T16:03:00.523Z,1.50
2019-05-28T16:05:50.416Z,1.30
2019-05-28T16:08:37.651Z,1.65
2019-05-28T16:11:24.631Z,1.10
2019-05-28T16:14:29.918Z,1.27
2019-05-28T16:17:16.856Z,1.33
2019-05-28T16:20:04.285Z,1.50
2019-05-28T16:22:51.198Z,1.83
2019-05-28T16:25:41.474Z,1.70
2019-05-28T16:28:25.021Z,1.77
2019-05-28T16:31:13.544Z,1.20
2019-05-28T16:33:58.628Z,1.50
2019-05-28T16:36:45.965Z,1.42
2019-05-28T16:39:41.872Z,1.67
2019-05-28T16:42:28.681Z,1.40
2019-05-28T16:45:15.790Z,1.65
2019-05-28T16:48:02.650Z,2.00
2019-05-28T16:50:50.402Z,1.45
2019-05-28T16:53:37.553Z,1.80
2019-05-28T16:56:24.442Z,1.58
2019-05-28T16:59:14.429Z,1.70
2019-05-28T17:02:01.576Z,1.77
2019-05-28T17:04:48.472Z,2.08
2019-05-28T17:08:02.234Z,1.73
2019-05-28T17:10:52.246Z,1.98
2019-05-28T17:13:39.299Z,2.00
2019-05-28T17:16:26.420Z,2.30
2019-05-28T17:19:17.408Z,1.52
2019-05-28T17:22:04.241Z,2.03
2019-05-28T17:24:51.984Z,2.20
2019-05-28T17:27:39.094Z,2.03
2019-05-28T17:30:28.047Z,2.50
2019-05-28T17:33:15.610Z,2.62
2019-05-28T17:36:02.906Z,2.85
2019-05-28T17:38:49.987Z,2.80
2019-05-28T17:41:37.608Z,3.65
2019-05-28T17:44:24.754Z,2.50
2019-05-28T17:47:11.843Z,2.90
2019-05-28T17:49:58.579Z,3.00
2019-05-28T17:52:51.865Z,2.70
2019-05-28T17:55:40.800Z,3.35
2019-05-28T17:58:33.638Z,2.40
2019-05-28T18:01:20.955Z,3.12
2019-05-28T18:04:08.080Z,3.30
2019-05-28T18:07:03.492Z,2.90
2019-05-28T18:09:50.547Z,3.53
2019-05-28T18:12:37.278Z,2.97
2019-05-28T18:15:24.631Z,3.17
2019-05-28T18:18:11.724Z,3.83
2019-05-28T18:20:59.010Z,3.65
2019-05-28T18:29:59.574Z,3.10
2019-05-28T18:32:46.696Z,2.87
2019-05-28T18:35:33.924Z,3.20
2019-05-28T18:38:20.876Z,3.25
2019-05-28T18:41:21.132Z,3.72
2019-05-28T18:43:56.838Z,3.40
2019-05-28T18:46:44.495Z,3.30
2019-05-28T18:49:31.762Z,3.85
2019-05-28T18:52:19.216Z,2.90
2019-05-28T18:55:06.158Z,4.05
2019-05-28T18:58:02.454Z,3.40
2019-05-28T19:00:55.253Z,3.03
2019-05-28T19:03:45.207Z,2.62
2019-05-28T19:06:32.868Z,3.12
2019-05-28T19:09:22.046Z,2.83
2019-05-28T19:12:12.470Z,3.30
2019-05-28T19:14:59.458Z,3.17
2019-05-28T19:17:49.539Z,2.47
2019-05-28T19:20:37.247Z,2.45
2019-05-28T19:23:24.157Z,3.00
2019-05-28T19:26:15.058Z,2.67
2019-05-28T19:35:23.895Z,3.10
2019-05-28T19:38:11.154Z,3.03
2019-05-28T19:40:59.892Z,4.10
2019-05-28T19:43:46.687Z,3.65
2019-05-28T19:46:34.112Z,3.58
2019-05-28T19:52:27.677Z,3.97
2019-05-28T19:55:14.968Z,3.78
2019-05-28T19:58:03.164Z,3.90
2019-05-28T20:00:50.089Z,4.57
2019-05-28T20:03:36.871Z,4.35
2019-05-28T20:06:23.774Z,4.82
2019-05-28T20:09:13.826Z,3.95
2019-05-28T20:12:12.015Z,4.45
2019-05-28T20:14:54.654Z,4.18
2019-05-28T20:17:44.405Z,4.43
2019-05-28T20:20:31.242Z,4.00
2019-05-28T20:23:18.464Z,4.28
2019-05-28T20:26:14.901Z,5.80
2019-05-28T20:29:08.580Z,5.22
2019-05-28T20:31:59.060Z,4.80
2019-05-28T20:34:46.058Z,5.85
2019-05-28T20:37:37.807Z,4.87
2019-05-28T20:40:27.633Z,4.10
2019-05-28T20:43:39.451Z,4.53
2019-05-28T20:46:41.494Z,4.53
2019-05-28T20:49:34.753Z,4.80
2019-05-28T20:55:33.902Z,4.95
2019-05-28T20:59:01.512Z,5.68
2019-05-28T21:01:51.720Z,4.65
2019-05-28T21:05:05.557Z,5.00
2019-05-28T21:12:21.158Z,5.28
2019-05-28T21:22:55.917Z,4.68
2019-05-28T21:25:42.641Z,5.20
2019-05-28T21:28:29.864Z,4.75
2019-05-28T21:31:16.530Z,4.72
2019-05-28T21:34:06.143Z,5.40
2019-05-28T21:36:53.129Z,5.45
2019-05-28T21:39:55.522Z,5.47
2019-05-28T21:42:42.249Z,5.68
2019-05-28T21:45:29.196Z,5.50
2019-05-28T21:48:28.528Z,6.40
2019-05-28T21:51:23.344Z,5.80
2019-05-28T21:54:10.136Z,6.45
2019-05-28T21:56:59.531Z,5.78
2019-05-28T22:02:51.032Z,5.90
2019-05-28T22:09:28.919Z,6.07
2019-05-28T22:12:24.118Z,6.62
2019-05-28T22:18:23.225Z,6.35
2019-05-28T22:21:11.072Z,6.72
2019-05-28T22:23:58.428Z,6.72
2019-05-28T22:26:45.468Z,8.40
2019-05-28T22:29:32.718Z,7.10
2019-05-28T22:35:25.684Z,7.20
2019-05-28T22:38:12.602Z,7.87
2019-05-28T22:41:00.386Z,7.30
2019-05-28T22:43:47.175Z,7.73
2019-05-28T22:49:18.608Z,6.57
2019-05-28T22:52:06.340Z,6.53
2019-05-28T22:55:08.187Z,7.32
2019-05-28T22:57:55.624Z,7.35
2019-05-28T23:00:43.374Z,6.65
2019-05-28T23:03:37.760Z,7.28
2019-05-28T23:06:24.571Z,7.12
2019-05-28T23:09:15.074Z,7.05
2019-05-28T23:12:02.185Z,6.70
2019-05-28T23:17:55.470Z,6.93
2019-05-28T23:20:43.246Z,6.75
2019-05-28T23:23:31.587Z,7.12
2019-05-28T23:26:18.835Z,6.47
2019-05-28T23:29:06.161Z,6.47
2019-05-28T23:31:53.165Z,7.05
2019-05-28T23:34:41.919Z,6.10
2019-05-28T23:37:29.249Z,6.20
2019-05-28T23:40:16.970Z,5.97
2019-05-28T23:43:03.966Z,6.30
2019-05-28T23:45:51.080Z,5.65
2019-05-28T23:48:39.121Z,6.12
2019-05-28T23:51:26.057Z,5.60
2019-05-28T23:54:27.432Z,5.72
2019-05-28T23:57:14.718Z,5.70
